sensor_id;sensor_type;location;lat;lon;timestamp;pressure;altitude;pressure_sealevel;temperature;humidity
28701;BME280;15877;52.344;16.790;2023-12-22T00:02:26;97149.15;;;6.91;70.70
28701;BME280;15877;52.344;16.790;2023-12-22T00:04:59;97140.29;;;6.93;71.95
28701;BME280;15877;52.344;16.790;2023-12-22T00:07:32;97143.48;;;7.04;70.91
28701;BME280;15877;52.344;16.790;2023-12-22T00:10:04;97148.87;;;7.08;70.06
28701;BME280;15877;52.344;16.790;2023-12-22T00:12:37;97145.58;;;6.92;70.64
28701;BME280;15877;52.344;16.790;2023-12-22T00:15:10;97165.69;;;6.92;71.51
28701;BME280;15877;52.344;16.790;2023-12-22T00:17:43;97162.84;;;6.93;71.84
28701;BME280;15877;52.344;16.790;2023-12-22T00:20:16;97159.00;;;6.81;72.04
28701;BME280;15877;52.344;16.790;2023-12-22T00:22:49;97167.81;;;7.11;70.12
28701;BME280;15877;52.344;16.790;2023-12-22T00:25:23;97177.14;;;7.24;68.76
28701;BME280;15877;52.344;16.790;2023-12-22T00:27:55;97181.83;;;7.03;68.31
28701;BME280;15877;52.344;16.790;2023-12-22T00:30:28;97164.65;;;6.78;68.60
28701;BME280;15877;52.344;16.790;2023-12-22T00:33:00;97150.88;;;6.72;69.05
28701;BME280;15877;52.344;16.790;2023-12-22T00:35:33;97167.62;;;6.84;68.73
28701;BME280;15877;52.344;16.790;2023-12-22T00:38:06;97159.43;;;6.94;67.42
28701;BME280;15877;52.344;16.790;2023-12-22T00:40:39;97170.69;;;6.94;66.56
28701;BME280;15877;52.344;16.790;2023-12-22T00:43:11;97167.29;;;7.10;65.54
28701;BME280;15877;52.344;16.790;2023-12-22T00:45:44;97165.58;;;7.18;64.72
28701;BME280;15877;52.344;16.790;2023-12-22T00:48:16;97166.47;;;7.16;63.70
28701;BME280;15877;52.344;16.790;2023-12-22T00:50:49;97170.59;;;7.29;62.99
28701;BME280;15877;52.344;16.790;2023-12-22T00:53:21;97168.98;;;7.08;63.26
28701;BME280;15877;52.344;16.790;2023-12-22T00:55:54;97161.42;;;6.97;63.44
28701;BME280;15877;52.344;16.790;2023-12-22T00:58:27;97187.06;;;7.11;63.19
28701;BME280;15877;52.344;16.790;2023-12-22T01:01:00;97166.79;;;6.97;63.52
28701;BME280;15877;52.344;16.790;2023-12-22T01:03:32;97189.19;;;7.12;63.43
28701;BME280;15877;52.344;16.790;2023-12-22T01:06:04;97175.81;;;7.28;62.87
28701;BME280;15877;52.344;16.790;2023-12-22T01:08:38;97190.49;;;7.17;63.25
28701;BME280;15877;52.344;16.790;2023-12-22T01:11:10;97205.61;;;7.00;63.90
28701;BME280;15877;52.344;16.790;2023-12-22T01:13:42;97199.72;;;6.94;64.56
28701;BME280;15877;52.344;16.790;2023-12-22T01:16:15;97188.16;;;6.87;65.16
28701;BME280;15877;52.344;16.790;2023-12-22T01:18:49;97181.95;;;6.91;65.71
28701;BME280;15877;52.344;16.790;2023-12-22T01:21:21;97182.11;;;6.85;66.91
28701;BME280;15877;52.344;16.790;2023-12-22T01:23:54;97187.45;;;6.86;67.35
28701;BME280;15877;52.344;16.790;2023-12-22T01:26:26;97198.62;;;6.82;67.85
28701;BME280;15877;52.344;16.790;2023-12-22T01:28:58;97204.98;;;6.85;67.54
28701;BME280;15877;52.344;16.790;2023-12-22T01:31:30;97214.58;;;6.91;67.13
28701;BME280;15877;52.344;16.790;2023-12-22T01:34:02;97201.48;;;6.76;68.12
28701;BME280;15877;52.344;16.790;2023-12-22T01:36:35;97208.41;;;6.66;68.40
28701;BME280;15877;52.344;16.790;2023-12-22T01:39:07;97219.13;;;6.88;67.80
28701;BME280;15877;52.344;16.790;2023-12-22T01:41:39;97200.54;;;6.65;68.96
28701;BME280;15877;52.344;16.790;2023-12-22T01:44:12;97203.63;;;6.77;68.77
28701;BME280;15877;52.344;16.790;2023-12-22T01:46:44;97204.86;;;6.83;67.84
28701;BME280;15877;52.344;16.790;2023-12-22T01:49:16;97221.16;;;6.73;68.38
28701;BME280;15877;52.344;16.790;2023-12-22T01:51:50;97210.09;;;6.85;68.23
28701;BME280;15877;52.344;16.790;2023-12-22T01:54:22;97206.30;;;6.70;68.36
28701;BME280;15877;52.344;16.790;2023-12-22T01:56:55;97204.64;;;6.61;68.93
28701;BME280;15877;52.344;16.790;2023-12-22T01:59:27;97207.67;;;6.62;68.75
28701;BME280;15877;52.344;16.790;2023-12-22T02:02:05;97221.53;;;6.75;68.32
28701;BME280;15877;52.344;16.790;2023-12-22T02:04:38;97208.45;;;6.69;67.61
28701;BME280;15877;52.344;16.790;2023-12-22T02:07:12;97208.08;;;6.67;67.62
28701;BME280;15877;52.344;16.790;2023-12-22T02:09:44;97215.50;;;6.65;67.81
28701;BME280;15877;52.344;16.790;2023-12-22T02:12:16;97205.58;;;6.65;66.97
28701;BME280;15877;52.344;16.790;2023-12-22T02:14:48;97215.45;;;6.58;67.51
28701;BME280;15877;52.344;16.790;2023-12-22T02:17:24;97216.91;;;6.83;66.43
28701;BME280;15877;52.344;16.790;2023-12-22T02:19:59;97214.49;;;6.81;66.32
28701;BME280;15877;52.344;16.790;2023-12-22T02:22:32;97218.41;;;6.88;65.67
28701;BME280;15877;52.344;16.790;2023-12-22T02:25:04;97222.05;;;6.70;65.70
28701;BME280;15877;52.344;16.790;2023-12-22T02:27:40;97217.70;;;6.78;65.25
28701;BME280;15877;52.344;16.790;2023-12-22T02:30:18;97226.54;;;6.71;64.87
28701;BME280;15877;52.344;16.790;2023-12-22T02:32:54;97223.38;;;6.71;64.37
28701;BME280;15877;52.344;16.790;2023-12-22T02:35:29;97226.65;;;6.85;63.85
28701;BME280;15877;52.344;16.790;2023-12-22T02:38:04;97240.11;;;6.86;63.42
28701;BME280;15877;52.344;16.790;2023-12-22T02:40:38;97227.81;;;6.81;62.73
28701;BME280;15877;52.344;16.790;2023-12-22T02:43:11;97233.86;;;6.78;61.02
28701;BME280;15877;52.344;16.790;2023-12-22T02:45:43;97249.63;;;6.83;60.69
28701;BME280;15877;52.344;16.790;2023-12-22T02:48:15;97231.89;;;7.03;60.04
28701;BME280;15877;52.344;16.790;2023-12-22T02:50:48;97231.90;;;7.03;59.87
28701;BME280;15877;52.344;16.790;2023-12-22T02:53:20;97232.44;;;6.93;60.27
28701;BME280;15877;52.344;16.790;2023-12-22T02:55:52;97238.81;;;6.99;59.92
28701;BME280;15877;52.344;16.790;2023-12-22T02:58:25;97247.84;;;7.12;59.24
28701;BME280;15877;52.344;16.790;2023-12-22T03:00:57;97254.05;;;7.04;58.83
28701;BME280;15877;52.344;16.790;2023-12-22T03:03:29;97248.50;;;6.89;59.26
28701;BME280;15877;52.344;16.790;2023-12-22T03:06:02;97264.01;;;7.01;59.21
28701;BME280;15877;52.344;16.790;2023-12-22T03:08:34;97256.02;;;7.14;58.86
28701;BME280;15877;52.344;16.790;2023-12-22T03:11:06;97272.36;;;7.01;58.31
28701;BME280;15877;52.344;16.790;2023-12-22T03:13:38;97273.25;;;7.21;58.09
28701;BME280;15877;52.344;16.790;2023-12-22T03:16:11;97273.28;;;7.19;57.06
28701;BME280;15877;52.344;16.790;2023-12-22T03:18:43;97264.09;;;7.17;56.53
28701;BME280;15877;52.344;16.790;2023-12-22T03:21:19;97266.13;;;6.92;56.95
28701;BME280;15877;52.344;16.790;2023-12-22T03:23:51;97274.59;;;7.01;56.93
28701;BME280;15877;52.344;16.790;2023-12-22T03:26:23;97277.16;;;7.08;56.54
28701;BME280;15877;52.344;16.790;2023-12-22T03:28:58;97277.95;;;7.03;56.31
28701;BME280;15877;52.344;16.790;2023-12-22T03:31:30;97271.65;;;6.91;56.86
28701;BME280;15877;52.344;16.790;2023-12-22T03:34:02;97274.75;;;6.95;56.94
28701;BME280;15877;52.344;16.790;2023-12-22T03:36:34;97275.61;;;6.91;57.29
28701;BME280;15877;52.344;16.790;2023-12-22T03:39:10;97284.55;;;6.65;57.87
28701;BME280;15877;52.344;16.790;2023-12-22T03:41:42;97288.28;;;6.74;57.84
28701;BME280;15877;52.344;16.790;2023-12-22T03:44:14;97282.27;;;6.82;57.36
28701;BME280;15877;52.344;16.790;2023-12-22T03:46:46;97282.55;;;6.90;56.86
28701;BME280;15877;52.344;16.790;2023-12-22T03:49:19;97278.24;;;6.88;56.89
28701;BME280;15877;52.344;16.790;2023-12-22T03:51:51;97283.33;;;6.85;57.43
28701;BME280;15877;52.344;16.790;2023-12-22T03:54:23;97282.48;;;6.94;58.05
28701;BME280;15877;52.344;16.790;2023-12-22T03:56:55;97280.69;;;6.87;58.49
28701;BME280;15877;52.344;16.790;2023-12-22T03:59:28;97276.66;;;6.77;59.05
28701;BME280;15877;52.344;16.790;2023-12-22T04:02:00;97278.70;;;6.59;59.84
28701;BME280;15877;52.344;16.790;2023-12-22T04:04:33;97283.16;;;6.18;61.16
28701;BME280;15877;52.344;16.790;2023-12-22T04:07:09;97282.58;;;6.33;60.49
28701;BME280;15877;52.344;16.790;2023-12-22T04:09:41;97297.77;;;6.72;59.14
28701;BME280;15877;52.344;16.790;2023-12-22T04:12:13;97288.90;;;6.58;58.40
28701;BME280;15877;52.344;16.790;2023-12-22T04:14:45;97293.86;;;6.70;57.25
28701;BME280;15877;52.344;16.790;2023-12-22T04:17:17;97296.95;;;6.74;57.33
28701;BME280;15877;52.344;16.790;2023-12-22T04:19:50;97299.26;;;6.79;57.50
28701;BME280;15877;52.344;16.790;2023-12-22T04:22:23;97308.20;;;6.70;58.19
28701;BME280;15877;52.344;16.790;2023-12-22T04:24:55;97314.79;;;6.60;58.44
28701;BME280;15877;52.344;16.790;2023-12-22T04:27:27;97312.23;;;6.62;56.83
28701;BME280;15877;52.344;16.790;2023-12-22T04:30:00;97328.14;;;6.64;55.94
28701;BME280;15877;52.344;16.790;2023-12-22T04:32:32;97326.98;;;6.62;54.51
28701;BME280;15877;52.344;16.790;2023-12-22T04:35:05;97319.77;;;6.71;54.84
28701;BME280;15877;52.344;16.790;2023-12-22T04:37:37;97320.56;;;6.71;56.04
28701;BME280;15877;52.344;16.790;2023-12-22T04:40:11;97314.34;;;6.64;57.96
28701;BME280;15877;52.344;16.790;2023-12-22T04:42:43;97316.52;;;6.66;58.90
28701;BME280;15877;52.344;16.790;2023-12-22T04:45:15;97313.25;;;6.69;59.24
28701;BME280;15877;52.344;16.790;2023-12-22T04:47:48;97299.59;;;6.46;59.63
28701;BME280;15877;52.344;16.790;2023-12-22T04:50:21;97316.39;;;6.45;60.36
28701;BME280;15877;52.344;16.790;2023-12-22T04:52:56;97312.81;;;6.35;61.20
28701;BME280;15877;52.344;16.790;2023-12-22T04:55:28;97317.37;;;6.28;61.77
28701;BME280;15877;52.344;16.790;2023-12-22T04:58:01;97323.73;;;6.29;62.12
28701;BME280;15877;52.344;16.790;2023-12-22T05:00:33;97332.92;;;6.45;61.57
28701;BME280;15877;52.344;16.790;2023-12-22T05:03:06;97328.79;;;6.42;61.72
28701;BME280;15877;52.344;16.790;2023-12-22T05:05:40;97328.37;;;6.23;62.32
28701;BME280;15877;52.344;16.790;2023-12-22T05:08:12;97342.71;;;6.14;63.11
28701;BME280;15877;52.344;16.790;2023-12-22T05:10:45;97329.02;;;6.41;61.82
28701;BME280;15877;52.344;16.790;2023-12-22T05:13:18;97325.60;;;6.10;62.94
28701;BME280;15877;52.344;16.790;2023-12-22T05:15:50;97330.70;;;6.27;62.71
28701;BME280;15877;52.344;16.790;2023-12-22T05:18:22;97334.59;;;6.08;63.10
28701;BME280;15877;52.344;16.790;2023-12-22T05:20:55;97324.58;;;6.03;62.75
28701;BME280;15877;52.344;16.790;2023-12-22T05:23:28;97328.73;;;5.97;62.89
28701;BME280;15877;52.344;16.790;2023-12-22T05:26:00;97351.44;;;6.16;63.04
28701;BME280;15877;52.344;16.790;2023-12-22T05:28:33;97350.82;;;6.08;63.10
28701;BME280;15877;52.344;16.790;2023-12-22T05:31:05;97353.07;;;5.94;63.21
28701;BME280;15877;52.344;16.790;2023-12-22T05:33:38;97349.91;;;5.75;64.14
28701;BME280;15877;52.344;16.790;2023-12-22T05:36:11;97337.37;;;5.69;64.56
28701;BME280;15877;52.344;16.790;2023-12-22T05:38:43;97355.09;;;5.76;64.56
28701;BME280;15877;52.344;16.790;2023-12-22T05:41:15;97354.77;;;5.67;64.86
28701;BME280;15877;52.344;16.790;2023-12-22T05:43:47;97364.23;;;5.76;64.83
28701;BME280;15877;52.344;16.790;2023-12-22T05:46:19;97371.06;;;5.89;63.89
28701;BME280;15877;52.344;16.790;2023-12-22T05:48:52;97366.48;;;5.89;63.72
28701;BME280;15877;52.344;16.790;2023-12-22T05:51:27;97358.83;;;5.71;64.00
28701;BME280;15877;52.344;16.790;2023-12-22T05:53:59;97360.33;;;6.00;63.38
28701;BME280;15877;52.344;16.790;2023-12-22T05:56:32;97347.27;;;5.92;62.40
28701;BME280;15877;52.344;16.790;2023-12-22T05:59:04;97351.45;;;5.69;63.02
28701;BME280;15877;52.344;16.790;2023-12-22T06:01:36;97342.16;;;5.71;62.63
28701;BME280;15877;52.344;16.790;2023-12-22T06:04:08;97325.53;;;5.84;61.89
28701;BME280;15877;52.344;16.790;2023-12-22T06:06:41;97340.02;;;6.00;61.91
28701;BME280;15877;52.344;16.790;2023-12-22T06:09:13;97330.30;;;5.75;63.21
28701;BME280;15877;52.344;16.790;2023-12-22T06:11:46;97330.77;;;5.57;64.06
28701;BME280;15877;52.344;16.790;2023-12-22T06:14:19;97329.28;;;5.66;64.34
28701;BME280;15877;52.344;16.790;2023-12-22T06:16:51;97326.00;;;5.73;64.05
28701;BME280;15877;52.344;16.790;2023-12-22T06:19:24;97316.30;;;5.37;64.78
28701;BME280;15877;52.344;16.790;2023-12-22T06:21:59;97325.34;;;5.66;64.56
28701;BME280;15877;52.344;16.790;2023-12-22T06:24:34;97326.94;;;5.46;65.17
28701;BME280;15877;52.344;16.790;2023-12-22T06:27:06;97319.42;;;5.41;65.39
28701;BME280;15877;52.344;16.790;2023-12-22T06:29:40;97321.81;;;5.36;65.69
28701;BME280;15877;52.344;16.790;2023-12-22T06:32:13;97323.11;;;5.41;65.55
28701;BME280;15877;52.344;16.790;2023-12-22T06:34:45;97327.08;;;5.47;64.85
28701;BME280;15877;52.344;16.790;2023-12-22T06:37:17;97341.55;;;5.58;64.59
28701;BME280;15877;52.344;16.790;2023-12-22T06:39:49;97327.79;;;5.57;64.82
28701;BME280;15877;52.344;16.790;2023-12-22T06:42:22;97308.14;;;5.02;66.25
28701;BME280;15877;52.344;16.790;2023-12-22T06:44:58;97331.45;;;5.06;66.79
28701;BME280;15877;52.344;16.790;2023-12-22T06:47:30;97324.04;;;5.43;66.20
28701;BME280;15877;52.344;16.790;2023-12-22T06:50:15;97316.92;;;5.59;65.45
28701;BME280;15877;52.344;16.790;2023-12-22T06:52:48;97316.00;;;5.36;66.33
28701;BME280;15877;52.344;16.790;2023-12-22T06:55:22;97310.35;;;5.34;66.75
28701;BME280;15877;52.344;16.790;2023-12-22T06:57:57;97312.63;;;5.45;66.29
28701;BME280;15877;52.344;16.790;2023-12-22T07:00:29;97319.44;;;5.48;66.40
28701;BME280;15877;52.344;16.790;2023-12-22T07:03:01;97327.21;;;5.50;66.49
28701;BME280;15877;52.344;16.790;2023-12-22T07:05:37;97321.14;;;5.33;66.98
28701;BME280;15877;52.344;16.790;2023-12-22T07:08:10;97307.06;;;5.33;67.57
28701;BME280;15877;52.344;16.790;2023-12-22T07:10:42;97304.23;;;5.34;67.84
28701;BME280;15877;52.344;16.790;2023-12-22T07:13:15;97308.78;;;5.34;68.29
28701;BME280;15877;52.344;16.790;2023-12-22T07:15:48;97304.31;;;5.43;68.74
28701;BME280;15877;52.344;16.790;2023-12-22T07:18:23;97296.09;;;5.66;68.08
28701;BME280;15877;52.344;16.790;2023-12-22T07:20:56;97294.50;;;5.30;68.83
28701;BME280;15877;52.344;16.790;2023-12-22T07:23:28;97278.90;;;5.33;68.65
28701;BME280;15877;52.344;16.790;2023-12-22T07:26:00;97293.08;;;5.40;69.11
28701;BME280;15877;52.344;16.790;2023-12-22T07:28:42;97307.23;;;5.40;69.03
28701;BME280;15877;52.344;16.790;2023-12-22T07:31:14;97308.38;;;5.44;69.34
28701;BME280;15877;52.344;16.790;2023-12-22T07:33:47;97316.48;;;5.35;69.89
28701;BME280;15877;52.344;16.790;2023-12-22T07:36:19;97312.69;;;5.66;69.07
28701;BME280;15877;52.344;16.790;2023-12-22T07:38:53;97307.42;;;5.75;67.91
28701;BME280;15877;52.344;16.790;2023-12-22T07:41:26;97334.52;;;5.97;65.32
28701;BME280;15877;52.344;16.790;2023-12-22T07:44:00;97336.77;;;6.17;64.44
28701;BME280;15877;52.344;16.790;2023-12-22T07:46:33;97346.64;;;5.99;63.08
28701;BME280;15877;52.344;16.790;2023-12-22T07:49:05;97348.70;;;5.90;60.79
28701;BME280;15877;52.344;16.790;2023-12-22T07:51:37;97348.83;;;5.92;60.34
28701;BME280;15877;52.344;16.790;2023-12-22T07:54:11;97374.12;;;6.08;58.95
28701;BME280;15877;52.344;16.790;2023-12-22T07:56:43;97386.80;;;5.87;61.97
28701;BME280;15877;52.344;16.790;2023-12-22T07:59:15;97384.36;;;5.77;67.55
28701;BME280;15877;52.344;16.790;2023-12-22T08:02:01;97362.25;;;5.66;70.09
28701;BME280;15877;52.344;16.790;2023-12-22T08:04:34;97355.92;;;5.39;70.55
28701;BME280;15877;52.344;16.790;2023-12-22T08:07:06;97351.55;;;5.47;68.84
28701;BME280;15877;52.344;16.790;2023-12-22T08:09:39;97347.16;;;5.45;67.73
28701;BME280;15877;52.344;16.790;2023-12-22T08:12:11;97357.71;;;5.53;65.55
28701;BME280;15877;52.344;16.790;2023-12-22T08:14:43;97347.17;;;5.62;65.17
28701;BME280;15877;52.344;16.790;2023-12-22T08:17:15;97354.89;;;5.70;65.31
28701;BME280;15877;52.344;16.790;2023-12-22T08:19:47;97365.36;;;5.51;65.15
28701;BME280;15877;52.344;16.790;2023-12-22T08:22:22;97391.90;;;5.68;66.49
28701;BME280;15877;52.344;16.790;2023-12-22T08:25:00;97367.34;;;5.50;69.20
28701;BME280;15877;52.344;16.790;2023-12-22T08:27:32;97343.01;;;5.29;69.94
28701;BME280;15877;52.344;16.790;2023-12-22T08:30:08;97323.34;;;5.10;70.47
28701;BME280;15877;52.344;16.790;2023-12-22T08:32:40;97310.91;;;5.22;69.28
28701;BME280;15877;52.344;16.790;2023-12-22T08:35:12;97323.20;;;5.50;66.94
28701;BME280;15877;52.344;16.790;2023-12-22T08:37:45;97320.79;;;5.66;66.23
28701;BME280;15877;52.344;16.790;2023-12-22T08:40:18;97332.45;;;5.53;65.89
28701;BME280;15877;52.344;16.790;2023-12-22T08:42:56;97338.52;;;5.61;65.13
28701;BME280;15877;52.344;16.790;2023-12-22T08:45:30;97358.41;;;5.63;64.54
28701;BME280;15877;52.344;16.790;2023-12-22T08:48:02;97353.90;;;5.67;64.03
28701;BME280;15877;52.344;16.790;2023-12-22T08:50:38;97374.34;;;5.60;64.82
28701;BME280;15877;52.344;16.790;2023-12-22T08:53:10;97356.82;;;5.77;65.40
28701;BME280;15877;52.344;16.790;2023-12-22T08:55:43;97373.77;;;5.62;65.95
28701;BME280;15877;52.344;16.790;2023-12-22T08:58:15;97369.81;;;5.54;66.95
28701;BME280;15877;52.344;16.790;2023-12-22T09:00:48;97395.20;;;5.33;69.84
28701;BME280;15877;52.344;16.790;2023-12-22T09:03:20;97384.63;;;5.28;70.48
28701;BME280;15877;52.344;16.790;2023-12-22T09:05:52;97381.23;;;5.31;70.41
28701;BME280;15877;52.344;16.790;2023-12-22T09:08:25;97375.85;;;5.32;70.84
28701;BME280;15877;52.344;16.790;2023-12-22T09:10:57;97386.05;;;5.37;70.28
28701;BME280;15877;52.344;16.790;2023-12-22T09:13:30;97374.45;;;5.19;70.88
28701;BME280;15877;52.344;16.790;2023-12-22T09:16:02;97371.52;;;5.24;70.69
28701;BME280;15877;52.344;16.790;2023-12-22T09:18:35;97367.38;;;5.19;70.15
28701;BME280;15877;52.344;16.790;2023-12-22T09:21:07;97367.10;;;5.26;69.90
28701;BME280;15877;52.344;16.790;2023-12-22T09:23:40;97381.70;;;5.04;70.02
28701;BME280;15877;52.344;16.790;2023-12-22T09:26:15;97366.95;;;5.24;69.80
28701;BME280;15877;52.344;16.790;2023-12-22T09:28:49;97372.08;;;5.35;69.01
28701;BME280;15877;52.344;16.790;2023-12-22T09:31:21;97373.30;;;5.00;69.67
28701;BME280;15877;52.344;16.790;2023-12-22T09:33:54;97369.49;;;5.06;70.20
28701;BME280;15877;52.344;16.790;2023-12-22T09:36:26;97357.80;;;5.04;70.78
28701;BME280;15877;52.344;16.790;2023-12-22T09:38:58;97361.83;;;5.39;69.72
28701;BME280;15877;52.344;16.790;2023-12-22T09:41:30;97351.05;;;5.14;69.80
28701;BME280;15877;52.344;16.790;2023-12-22T09:44:04;97370.23;;;5.39;69.81
28701;BME280;15877;52.344;16.790;2023-12-22T09:46:38;97364.64;;;5.42;69.10
28701;BME280;15877;52.344;16.790;2023-12-22T09:49:12;97363.21;;;5.31;68.80
28701;BME280;15877;52.344;16.790;2023-12-22T09:51:45;97360.82;;;5.46;67.70
28701;BME280;15877;52.344;16.790;2023-12-22T09:54:18;97358.23;;;5.68;66.95
28701;BME280;15877;52.344;16.790;2023-12-22T09:56:51;97372.42;;;5.42;67.72
28701;BME280;15877;52.344;16.790;2023-12-22T09:59:24;97370.97;;;5.46;67.27
28701;BME280;15877;52.344;16.790;2023-12-22T10:01:58;97362.70;;;5.59;66.40
28701;BME280;15877;52.344;16.790;2023-12-22T10:04:31;97381.84;;;5.55;66.93
28701;BME280;15877;52.344;16.790;2023-12-22T10:07:05;97376.30;;;5.60;66.17
28701;BME280;15877;52.344;16.790;2023-12-22T10:09:39;97377.30;;;5.73;65.83
28701;BME280;15877;52.344;16.790;2023-12-22T10:12:12;97377.92;;;5.75;65.29
28701;BME280;15877;52.344;16.790;2023-12-22T10:14:46;97369.01;;;5.89;65.07
28701;BME280;15877;52.344;16.790;2023-12-22T10:17:19;97380.04;;;5.74;65.22
28701;BME280;15877;52.344;16.790;2023-12-22T10:19:51;97375.30;;;5.89;64.77
28701;BME280;15877;52.344;16.790;2023-12-22T10:22:23;97375.84;;;5.92;63.64
28701;BME280;15877;52.344;16.790;2023-12-22T10:24:56;97380.31;;;5.80;63.58
28701;BME280;15877;52.344;16.790;2023-12-22T10:27:28;97368.51;;;5.76;62.84
28701;BME280;15877;52.344;16.790;2023-12-22T10:30:02;97360.23;;;5.85;62.45
28701;BME280;15877;52.344;16.790;2023-12-22T10:32:41;97380.90;;;5.98;62.53
28701;BME280;15877;52.344;16.790;2023-12-22T10:35:13;97361.23;;;5.96;62.23
28701;BME280;15877;52.344;16.790;2023-12-22T10:37:46;97377.10;;;5.90;62.39
28701;BME280;15877;52.344;16.790;2023-12-22T10:40:20;97374.48;;;5.84;62.12
28701;BME280;15877;52.344;16.790;2023-12-22T10:42:52;97370.69;;;5.96;61.84
28701;BME280;15877;52.344;16.790;2023-12-22T10:45:24;97397.17;;;5.99;62.10
28701;BME280;15877;52.344;16.790;2023-12-22T10:47:57;97375.40;;;6.04;61.05
28701;BME280;15877;52.344;16.790;2023-12-22T10:50:30;97381.54;;;6.14;61.40
28701;BME280;15877;52.344;16.790;2023-12-22T10:53:03;97378.55;;;6.20;61.06
28701;BME280;15877;52.344;16.790;2023-12-22T10:55:37;97389.72;;;6.30;60.90
28701;BME280;15877;52.344;16.790;2023-12-22T10:58:10;97395.00;;;6.14;60.74
28701;BME280;15877;52.344;16.790;2023-12-22T11:00:45;97385.13;;;6.18;60.65
28701;BME280;15877;52.344;16.790;2023-12-22T11:03:21;97405.24;;;6.21;60.35
28701;BME280;15877;52.344;16.790;2023-12-22T11:05:59;97393.36;;;6.03;60.77
28701;BME280;15877;52.344;16.790;2023-12-22T11:08:37;97390.98;;;6.22;60.73
28701;BME280;15877;52.344;16.790;2023-12-22T11:11:15;97397.17;;;6.17;60.28
28701;BME280;15877;52.344;16.790;2023-12-22T11:13:48;97392.71;;;6.14;60.02
28701;BME280;15877;52.344;16.790;2023-12-22T11:16:22;97396.52;;;6.37;60.00
28701;BME280;15877;52.344;16.790;2023-12-22T11:18:56;97413.56;;;6.26;60.17
28701;BME280;15877;52.344;16.790;2023-12-22T11:21:29;97402.66;;;6.20;59.97
28701;BME280;15877;52.344;16.790;2023-12-22T11:24:02;97392.33;;;6.12;60.28
28701;BME280;15877;52.344;16.790;2023-12-22T11:26:36;97402.61;;;6.09;60.26
28701;BME280;15877;52.344;16.790;2023-12-22T11:29:10;97393.70;;;6.09;60.13
28701;BME280;15877;52.344;16.790;2023-12-22T11:31:45;97406.94;;;6.16;59.72
28701;BME280;15877;52.344;16.790;2023-12-22T11:34:19;97397.27;;;6.15;59.68
28701;BME280;15877;52.344;16.790;2023-12-22T11:36:53;97404.83;;;6.07;59.82
28701;BME280;15877;52.344;16.790;2023-12-22T11:39:26;97401.59;;;5.90;60.13
28701;BME280;15877;52.344;16.790;2023-12-22T11:41:58;97382.69;;;6.08;59.78
28701;BME280;15877;52.344;16.790;2023-12-22T11:44:31;97401.59;;;6.25;59.62
28701;BME280;15877;52.344;16.790;2023-12-22T11:47:08;97399.00;;;6.25;60.27
28701;BME280;15877;52.344;16.790;2023-12-22T11:49:42;97409.08;;;6.16;60.48
28701;BME280;15877;52.344;16.790;2023-12-22T11:52:15;97408.02;;;6.12;60.58
28701;BME280;15877;52.344;16.790;2023-12-22T11:54:49;97421.46;;;6.13;60.77
28701;BME280;15877;52.344;16.790;2023-12-22T11:57:32;97418.64;;;6.02;61.44
28701;BME280;15877;52.344;16.790;2023-12-22T12:00:08;97426.14;;;6.19;61.38
28701;BME280;15877;52.344;16.790;2023-12-22T12:02:42;97422.45;;;6.25;61.48
28701;BME280;15877;52.344;16.790;2023-12-22T12:05:16;97431.80;;;6.11;61.97
28701;BME280;15877;52.344;16.790;2023-12-22T12:07:49;97440.37;;;6.21;61.23
28701;BME280;15877;52.344;16.790;2023-12-22T12:10:51;97436.13;;;6.21;60.89
28701;BME280;15877;52.344;16.790;2023-12-22T12:13:25;97438.85;;;6.23;60.55
28701;BME280;15877;52.344;16.790;2023-12-22T12:15:59;97440.29;;;6.20;60.46
28701;BME280;15877;52.344;16.790;2023-12-22T12:18:33;97432.96;;;6.02;60.79
28701;BME280;15877;52.344;16.790;2023-12-22T12:21:07;97449.71;;;6.06;60.68
28701;BME280;15877;52.344;16.790;2023-12-22T12:23:42;97439.90;;;6.21;60.44
28701;BME280;15877;52.344;16.790;2023-12-22T12:26:17;97448.07;;;6.31;60.30
28701;BME280;15877;52.344;16.790;2023-12-22T12:28:50;97450.34;;;6.25;59.37
28701;BME280;15877;52.344;16.790;2023-12-22T12:31:36;97442.79;;;6.41;58.94
28701;BME280;15877;52.344;16.790;2023-12-22T12:34:12;97438.83;;;6.35;58.75
28701;BME280;15877;52.344;16.790;2023-12-22T12:36:45;97438.55;;;6.32;58.48
28701;BME280;15877;52.344;16.790;2023-12-22T12:39:21;97447.51;;;6.24;58.13
28701;BME280;15877;52.344;16.790;2023-12-22T12:41:55;97454.23;;;6.38;57.67
28701;BME280;15877;52.344;16.790;2023-12-22T12:44:28;97449.81;;;6.40;57.39
28701;BME280;15877;52.344;16.790;2023-12-22T12:47:12;97440.73;;;6.34;56.92
28701;BME280;15877;52.344;16.790;2023-12-22T12:49:45;97455.08;;;6.32;57.52
28701;BME280;15877;52.344;16.790;2023-12-22T12:52:18;97480.80;;;6.45;56.27
28701;BME280;15877;52.344;16.790;2023-12-22T12:54:50;97462.71;;;6.32;56.21
28701;BME280;15877;52.344;16.790;2023-12-22T12:57:22;97474.23;;;6.31;56.06
28701;BME280;15877;52.344;16.790;2023-12-22T12:59:55;97461.16;;;6.29;56.50
28701;BME280;15877;52.344;16.790;2023-12-22T13:02:28;97435.08;;;6.23;56.30
28701;BME280;15877;52.344;16.790;2023-12-22T13:05:01;97466.70;;;6.45;55.77
28701;BME280;15877;52.344;16.790;2023-12-22T13:07:35;97468.39;;;6.32;56.00
28701;BME280;15877;52.344;16.790;2023-12-22T13:10:20;97473.27;;;6.32;55.86
28701;BME280;15877;52.344;16.790;2023-12-22T13:12:53;97490.08;;;6.28;55.90
28701;BME280;15877;52.344;16.790;2023-12-22T13:15:25;97506.16;;;6.37;55.84
28701;BME280;15877;52.344;16.790;2023-12-22T13:17:57;97496.39;;;6.26;55.63
28701;BME280;15877;52.344;16.790;2023-12-22T13:20:30;97506.84;;;6.30;55.50
28701;BME280;15877;52.344;16.790;2023-12-22T13:23:03;97494.63;;;6.39;55.58
28701;BME280;15877;52.344;16.790;2023-12-22T13:25:40;97498.27;;;6.29;55.64
28701;BME280;15877;52.344;16.790;2023-12-22T13:28:12;97520.80;;;6.37;54.93
28701;BME280;15877;52.344;16.790;2023-12-22T13:30:44;97521.70;;;6.32;53.95
28701;BME280;15877;52.344;16.790;2023-12-22T13:33:18;97517.91;;;6.44;53.97